Terminal Aerodrome Forecast
Issued by NWS

Home | Current Version | Previous Version | Text Only | Print | Product List | Glossary On
Versions: 1 2 3 4 5 6 7 8 9 10 11 12 13
000
FTUS46 KPDT 301727
TAFDLS
TAF
KDLS 301727Z 3018/3118 31010KT P6SM SCT120
     FM302000 31014G22KT P6SM SCT120
     FM310500 30008KT P6SM BKN120
     FM311700 32004KT P6SM SCT100 BKN150=

USA.gov is the U.S. government's official web portal to all federal, state and local government web resources and services.